Time;durP1;ratioP1;P1;durP2;ratioP2;P2;SDS_P1;SDS_P2;PMS_P1;PMS_P2;Temp;Humidity;BMP_temperature;BMP_pressure;BME280_temperature;BME280_humidity;BME280_pressure;Samples;Min_cycle;Max_cycle;Signal;HPM_P1;HPM_P2
2023/03/23 00:01:32;;;;;;;12.27;10.03;;;;;;;11.40;66.37;94596.94;4994322;28;20711;-47
2023/03/23 00:03:59;;;;;;;13.57;9.83;;;;;;;11.38;66.37;94590.34;4997359;28;20233;-47
2023/03/23 00:06:32;;;;;;;26.57;10.53;;;;;;;11.36;66.30;94587.94;4992122;28;20185;-47
2023/03/23 00:09:01;;;;;;;11.80;9.10;;;;;;;11.35;66.30;94586.28;4991327;28;20579;-46
2023/03/23 00:11:30;;;;;;;14.83;10.70;;;;;;;11.33;66.24;94584.84;4996340;28;20607;-47
2023/03/23 00:14:00;;;;;;;11.63;9.10;;;;;;;11.32;66.40;94584.03;5010861;28;20624;-46
2023/03/23 00:16:30;;;;;;;13.70;9.73;;;;;;;11.28;66.24;94586.09;5010967;28;20200;-46
2023/03/23 00:18:58;;;;;;;12.43;9.77;;;;;;;11.28;66.28;94586.09;5010130;28;20193;-46
2023/03/23 00:21:32;;;;;;;11.10;9.27;;;;;;;11.26;66.27;94587.97;5004772;28;20204;-49
2023/03/23 00:24:01;;;;;;;13.17;9.77;;;;;;;11.24;66.45;94594.19;4991082;28;20228;-47
2023/03/23 00:26:29;;;;;;;10.90;8.53;;;;;;;11.22;66.37;94588.41;4991358;28;20731;-47
2023/03/23 00:28:56;;;;;;;11.83;8.67;;;;;;;11.20;66.31;94593.69;4990516;28;20193;-47
2023/03/23 00:31:23;;;;;;;11.80;9.10;;;;;;;11.06;66.37;94573.69;4992318;28;20192;-45
2023/03/23 00:33:50;;;;;;;10.17;8.67;;;;;;;11.17;66.24;94596.50;5007748;28;20227;-48
2023/03/23 00:36:17;;;;;;;13.10;9.17;;;;;;;11.17;66.28;94593.97;4995226;28;20200;-46
2023/03/23 00:38:46;;;;;;;11.57;9.13;;;;;;;11.16;66.52;94607.72;4990891;28;20220;-47
2023/03/23 00:41:15;;;;;;;14.30;9.63;;;;;;;11.15;66.35;94608.66;4991910;28;20201;-46
2023/03/23 00:43:42;;;;;;;12.30;9.33;;;;;;;11.15;66.41;94606.09;4999155;28;20253;-45
2023/03/23 00:46:09;;;;;;;11.23;8.87;;;;;;;11.11;66.44;94607.34;4989894;28;20278;-46
2023/03/23 00:48:40;;;;;;;12.83;9.20;;;;;;;11.15;66.20;94607.84;4990489;28;20300;-48
2023/03/23 00:51:10;;;;;;;10.87;8.60;;;;;;;11.14;66.53;94611.34;5006652;28;20192;-46
2023/03/23 00:53:37;;;;;;;12.90;9.30;;;;;;;11.14;66.33;94611.34;5003747;28;20507;-47
2023/03/23 00:56:04;;;;;;;12.97;9.23;;;;;;;11.15;66.41;94618.91;4990575;28;20649;-47
2023/03/23 00:58:32;;;;;;;10.50;8.50;;;;;;;11.14;66.55;94612.19;4991039;28;20231;-46
2023/03/23 01:00:58;;;;;;;10.50;8.47;;;;;;;11.15;66.40;94616.34;4990751;28;20685;-47
2023/03/23 01:03:25;;;;;;;9.97;8.10;;;;;;;11.16;66.46;94615.38;5005849;28;20569;-47
2023/03/23 01:05:52;;;;;;;11.80;8.83;;;;;;;11.16;66.41;94620.50;5002956;28;20861;-48
2023/03/23 01:08:21;;;;;;;15.87;10.47;;;;;;;11.16;66.39;94625.63;5009715;28;20581;-47
2023/03/23 01:10:48;;;;;;;10.33;8.90;;;;;;;11.16;66.44;94630.75;5007790;28;20278;-46
2023/03/23 01:13:15;;;;;;;14.17;9.23;;;;;;;11.16;66.54;94623.06;5009234;28;20188;-49
2023/03/23 01:15:43;;;;;;;13.53;9.00;;;;;;;11.16;66.58;94623.06;4999055;28;20193;-47
2023/03/23 01:18:11;;;;;;;12.17;9.87;;;;;;;11.16;66.53;94620.50;4990240;28;20271;-46
2023/03/23 01:20:38;;;;;;;12.63;10.03;;;;;;;11.18;66.81;94620.34;4989916;28;20189;-45
2023/03/23 01:23:05;;;;;;;14.40;9.70;;;;;;;11.19;66.68;94614.31;4990177;28;20225;-47
2023/03/23 01:25:36;;;;;;;14.23;10.60;;;;;;;11.20;66.67;94621.03;4990832;28;20221;-48
2023/03/23 01:28:03;;;;;;;13.43;9.73;;;;;;;11.23;66.74;94611.31;4989825;28;20196;-45
2023/03/23 01:30:30;;;;;;;11.23;9.47;;;;;;;11.25;66.60;94616.28;4989420;28;20279;-47
2023/03/23 01:32:58;;;;;;;13.87;9.90;;;;;;;11.25;66.58;94609.41;4997047;28;20200;-46
2023/03/23 01:35:25;;;;;;;15.03;9.83;;;;;;;11.28;66.58;94609.13;5007554;28;20532;-48
2023/03/23 01:37:52;;;;;;;13.10;10.67;;;;;;;11.30;66.42;94614.09;5008962;28;20193;-49
2023/03/23 01:40:18;;;;;;;15.07;11.10;;;;;;;11.29;66.80;94607.38;5009270;28;20247;-47
2023/03/23 01:42:45;;;;;;;14.23;10.47;;;;;;;11.32;66.90;94607.09;5007788;28;20227;-48
2023/03/23 01:45:29;;;;;;;16.27;10.93;;;;;;;11.36;66.74;94599.94;5008062;28;20339;-45
2023/03/23 01:48:05;;;;;;;16.33;11.53;;;;;;;11.36;66.64;94599.94;5001668;28;20816;-47
2023/03/23 01:50:37;;;;;;;14.07;11.27;;;;;;;11.34;67.00;94594.13;5009163;28;20667;-46
2023/03/23 01:53:08;;;;;;;12.87;10.13;;;;;;;11.34;66.83;94594.13;5009071;28;20196;-47
2023/03/23 01:55:39;;;;;;;12.33;10.33;;;;;;;11.33;66.89;94592.53;5008953;28;20199;-46
2023/03/23 01:58:07;;;;;;;15.50;11.07;;;;;;;11.32;66.88;94583.25;4999223;28;20282;-47
2023/03/23 02:00:34;;;;;;;13.03;10.37;;;;;;;11.31;66.82;94587.53;5009020;28;20279;-47
2023/03/23 02:03:02;;;;;;;13.30;10.67;;;;;;;11.27;66.87;94587.03;5008751;28;20243;-47
2023/03/23 02:05:33;;;;;;;13.00;10.67;;;;;;;11.29;66.87;94592.00;5009122;28;20266;-47
2023/03/23 02:08:03;;;;;;;12.97;10.07;;;;;;;11.27;66.87;94587.03;5005277;28;20193;-47
2023/03/23 02:10:31;;;;;;;14.70;10.67;;;;;;;11.23;67.04;94579.78;5007356;28;20180;-47
2023/03/23 02:12:59;;;;;;;14.83;10.63;;;;;;;11.29;66.97;94592.00;5008849;28;20196;-47
2023/03/23 02:15:30;;;;;;;13.97;10.97;;;;;;;11.31;67.00;94592.66;5008778;28;20199;-47
2023/03/23 02:18:08;;;;;;;13.23;10.30;;;;;;;11.31;66.76;94592.66;5006968;28;20193;-46
2023/03/23 02:21:05;;;;;;;14.17;11.20;;;;;;;11.32;66.77;94586.59;4991206;28;20197;-46
2023/03/23 02:23:54;;;;;;;17.73;9.80;;;;;;;11.35;66.78;94590.63;4989395;28;20604;-46
2023/03/23 02:26:32;;;;;;;13.33;10.10;;;;;;;11.36;66.57;94595.63;4989546;28;20196;-47
2023/03/23 02:29:26;;;;;;;12.00;9.90;;;;;;;11.37;66.72;94596.41;4989703;28;20196;-47
2023/03/23 02:32:13;;;;;;;13.23;9.67;;;;;;;11.36;66.73;94598.16;4989130;28;20247;-46
2023/03/23 02:34:44;;;;;;;12.67;9.40;;;;;;;11.34;66.81;94589.81;4989280;28;20189;-47
2023/03/23 02:37:15;;;;;;;12.87;9.20;;;;;;;11.33;66.70;94590.78;4989225;28;20545;-46
2023/03/23 02:39:46;;;;;;;11.33;9.20;;;;;;;11.29;66.70;94592.81;4999331;28;20561;-48
2023/03/23 02:42:17;;;;;;;15.47;9.63;;;;;;;11.28;66.58;94585.28;4989461;28;20288;-48
2023/03/23 02:44:46;;;;;;;13.47;9.77;;;;;;;11.23;66.91;94584.91;4988831;28;20311;-48
2023/03/23 02:47:17;;;;;;;12.33;9.10;;;;;;;11.22;66.72;94588.41;4989119;28;20193;-47
2023/03/23 02:49:50;;;;;;;10.50;8.63;;;;;;;11.23;66.76;94595.97;4991440;28;20181;-46
2023/03/23 02:52:20;;;;;;;11.73;9.00;;;;;;;11.18;66.97;94593.03;5008413;28;20196;-45
2023/03/23 02:54:50;;;;;;;10.57;9.00;;;;;;;11.19;66.84;94601.50;5008640;28;20214;-47
2023/03/23 02:57:18;;;;;;;11.27;8.23;;;;;;;11.09;66.87;94586.19;5010450;28;20185;-47
2023/03/23 02:59:46;;;;;;;9.90;8.83;;;;;;;11.13;66.91;94602.88;5010951;28;20280;-48
2023/03/23 03:02:15;;;;;;;11.97;8.40;;;;;;;11.14;66.73;94614.75;5011979;28;20247;-45
2023/03/23 03:04:48;;;;;;;11.70;8.83;;;;;;;11.09;66.90;94616.91;5011791;28;20254;-46
2023/03/23 03:07:50;;;;;;;11.03;8.93;;;;;;;11.09;66.83;94624.56;5012076;28;20192;-45
2023/03/23 03:10:24;;;;;;;9.83;7.77;;;;;;;11.07;66.82;94629.03;5011647;28;20192;-45
2023/03/23 03:12:57;;;;;;;10.20;8.23;;;;;;;11.03;66.79;94632.81;4992331;28;20204;-48
2023/03/23 03:15:30;;;;;;;12.00;9.43;;;;;;;11.02;66.86;94634.59;4992263;28;20757;-47
2023/03/23 03:18:06;;;;;;;10.13;8.80;;;;;;;10.98;66.98;94635.81;4992133;28;20307;-47
2023/03/23 03:20:37;;;;;;;11.30;8.27;;;;;;;10.97;66.88;94635.97;4995277;28;20193;-46
2023/03/23 03:23:09;;;;;;;10.07;8.53;;;;;;;10.98;66.98;94637.56;4997123;28;20209;-46
2023/03/23 03:25:37;;;;;;;12.10;9.13;;;;;;;10.95;67.12;94643.75;4992347;28;20189;-46
2023/03/23 03:28:04;;;;;;;11.57;9.10;;;;;;;10.92;67.28;94635.56;4992172;28;20189;-48
2023/03/23 03:30:37;;;;;;;10.70;9.30;;;;;;;10.93;67.24;94638.00;4993173;28;20916;-46
2023/03/23 03:33:04;;;;;;;11.63;8.97;;;;;;;10.94;67.18;94639.59;4991837;28;20658;-46
2023/03/23 03:35:32;;;;;;;12.17;9.90;;;;;;;10.94;67.00;94642.16;5008411;28;20196;-47
2023/03/23 03:38:08;;;;;;;11.67;9.57;;;;;;;10.93;67.27;94644.88;4992380;28;20593;-45
2023/03/23 03:40:35;;;;;;;13.60;9.93;;;;;;;10.93;67.10;94647.44;4992257;28;20194;-47
2023/03/23 03:43:03;;;;;;;13.93;10.20;;;;;;;10.94;67.17;94657.50;4999287;28;20204;-47
2023/03/23 03:45:30;;;;;;;13.93;9.57;;;;;;;10.96;67.13;94652.25;5011259;28;20213;-47
2023/03/23 03:47:56;;;;;;;12.23;9.13;;;;;;;10.97;67.03;94643.63;5010986;28;20196;-45
2023/03/23 03:50:23;;;;;;;12.40;9.93;;;;;;;10.98;67.45;94652.91;5011611;28;20189;-46
2023/03/23 03:52:50;;;;;;;14.63;10.03;;;;;;;10.99;67.25;94654.53;5009438;28;20196;-47
2023/03/23 03:55:18;;;;;;;16.03;10.50;;;;;;;11.00;67.42;94651.00;4991873;28;20282;-46
2023/03/23 03:57:45;;;;;;;14.20;10.33;;;;;;;10.99;67.22;94645.09;4991897;28;20209;-46
2023/03/23 04:00:14;;;;;;;12.13;9.70;;;;;;;10.99;67.39;94639.97;4991841;28;20189;-48
2023/03/23 04:02:43;;;;;;;15.80;10.50;;;;;;;10.99;67.51;94641.72;4992309;28;20273;-46
2023/03/23 04:05:11;;;;;;;13.73;10.27;;;;;;;10.98;67.29;94632.44;5003640;28;20228;-47
2023/03/23 04:07:39;;;;;;;14.23;10.50;;;;;;;10.96;67.22;94637.69;5011173;28;20278;-48
2023/03/23 04:10:07;;;;;;;17.43;10.20;;;;;;;10.94;67.32;94631.13;5011125;28;20234;-45
2023/03/23 04:12:36;;;;;;;14.40;10.27;;;;;;;10.88;67.42;94631.66;5011209;28;20571;-48
2023/03/23 04:15:03;;;;;;;16.90;11.00;;;;;;;10.90;67.42;94627.22;5002470;28;20673;-45
2023/03/23 04:17:30;;;;;;;13.93;10.60;;;;;;;10.88;67.48;94635.06;5006524;28;20693;-47
2023/03/23 04:19:58;;;;;;;14.10;10.57;;;;;;;10.87;67.33;94632.63;4991310;28;20189;-45
2023/03/23 04:22:29;;;;;;;13.27;10.90;;;;;;;10.84;67.30;94627.78;5010841;28;20180;-46
2023/03/23 04:24:58;;;;;;;14.17;11.20;;;;;;;10.87;67.44;94642.84;5008507;28;20720;-46
2023/03/23 04:27:27;;;;;;;13.00;10.23;;;;;;;10.87;67.44;94647.97;4991531;28;20625;-46
2023/03/23 04:29:57;;;;;;;14.97;11.57;;;;;;;10.86;67.41;94642.06;4991081;28;20201;-46
2023/03/23 04:32:24;;;;;;;14.83;11.23;;;;;;;10.85;67.38;94637.88;4990803;28;20657;-47
2023/03/23 04:34:52;;;;;;;15.03;11.40;;;;;;;10.85;67.44;94643.00;4992069;28;20190;-48
2023/03/23 04:37:19;;;;;;;15.63;11.17;;;;;;;10.85;67.34;94642.22;4991067;28;20280;-47
2023/03/23 04:39:46;;;;;;;14.83;10.13;;;;;;;10.85;67.33;94647.31;4990738;28;20200;-46
2023/03/23 04:42:13;;;;;;;15.97;10.67;;;;;;;10.79;67.07;94636.72;4991977;28;20608;-46
2023/03/23 04:44:42;;;;;;;14.20;10.57;;;;;;;10.86;67.23;94647.16;4990594;28;20235;-47
2023/03/23 04:47:10;;;;;;;13.53;10.87;;;;;;;10.86;67.09;94649.72;4991672;28;20197;-46
2023/03/23 04:49:37;;;;;;;15.90;10.87;;;;;;;10.85;67.10;94648.13;4990573;28;20228;-46
2023/03/23 04:52:04;;;;;;;15.83;12.30;;;;;;;10.85;67.23;94648.13;4991310;28;20280;-46
2023/03/23 04:54:31;;;;;;;9.63;8.07;;;;;;;11.41;97.71;94648.94;4992290;28;20197;-50
2023/03/23 04:56:59;;;;;;;15.27;9.03;;;;;;;11.74;90.96;94650.06;5002725;28;20197;-44
2023/03/23 04:59:27;;;;;;;12.97;8.70;;;;;;;11.81;84.91;94651.09;4991930;28;20181;-46
2023/03/23 05:01:55;;;;;;;13.70;8.40;;;;;;;11.81;81.33;94657.03;4991108;28;20212;-47
2023/03/23 05:04:24;;;;;;;10.97;8.50;;;;;;;11.81;80.17;94662.16;4990913;28;20736;-48
2023/03/23 05:06:52;;;;;;;15.97;8.70;;;;;;;11.80;79.71;94659.75;4992180;28;20193;-48
2023/03/23 05:09:19;;;;;;;11.80;8.60;;;;;;;11.73;79.55;94651.00;5010602;28;20665;-46
2023/03/23 05:11:46;;;;;;;13.63;9.27;;;;;;;11.78;79.12;94665.00;5004468;28;20566;-47
2023/03/23 05:14:12;;;;;;;10.90;8.57;;;;;;;11.78;78.61;94671.88;4990834;28;20208;-48
2023/03/23 05:16:39;;;;;;;15.87;10.00;;;;;;;11.81;78.38;94669.03;4990325;28;20216;-48
2023/03/23 05:19:07;;;;;;;16.57;9.67;;;;;;;11.83;77.92;94668.91;4990418;28;20229;-47
2023/03/23 05:21:36;;;;;;;11.17;9.57;;;;;;;11.87;77.71;94675.34;5002945;28;20203;-46
2023/03/23 05:24:04;;;;;;;15.83;10.03;;;;;;;11.91;77.17;94671.53;5000453;28;20224;-48
2023/03/23 05:26:30;;;;;;;14.60;10.17;;;;;;;11.93;76.62;94672.22;4993498;28;20196;-47
2023/03/23 05:28:58;;;;;;;18.77;11.60;;;;;;;11.97;76.46;94678.66;4990548;28;20204;-48
2023/03/23 05:31:25;;;;;;;14.13;11.00;;;;;;;11.99;75.85;94674.19;4991312;28;20276;-48
2023/03/23 05:33:52;;;;;;;14.10;10.50;;;;;;;12.03;75.26;94685.75;5001486;28;20637;-46
2023/03/23 05:36:19;;;;;;;15.73;11.17;;;;;;;12.09;74.93;94684.34;4989374;28;20660;-48
2023/03/23 05:38:49;;;;;;;18.20;13.00;;;;;;;12.16;74.30;94691.31;4990653;28;20268;-48
2023/03/23 05:41:16;;;;;;;13.77;11.07;;;;;;;12.18;73.82;94684.31;4989824;28;20292;-47
2023/03/23 05:43:42;;;;;;;15.97;12.00;;;;;;;12.32;73.10;94682.16;4996424;28;20628;-48
2023/03/23 05:46:09;;;;;;;16.33;12.10;;;;;;;12.43;72.94;94700.66;5009081;28;20294;-48
2023/03/23 05:48:36;;;;;;;16.27;13.13;;;;;;;12.54;72.45;94699.63;5009270;28;20191;-46
2023/03/23 05:51:03;;;;;;;15.27;11.50;;;;;;;12.75;72.49;94701.88;5009456;28;20192;-47
2023/03/23 05:53:37;;;;;;;17.37;12.43;;;;;;;12.94;72.32;94698.28;5009467;28;20625;-48
2023/03/23 05:56:06;;;;;;;18.17;12.40;;;;;;;13.19;72.16;94701.78;5008958;28;20208;-48
2023/03/23 05:58:33;;;;;;;13.23;11.20;;;;;;;13.64;72.15;94706.66;5009120;28;20189;-48
2023/03/23 06:01:00;;;;;;;14.90;11.80;;;;;;;13.98;72.30;94704.00;5009463;28;20271;-49
2023/03/23 06:03:26;;;;;;;13.73;11.20;;;;;;;14.32;71.99;94705.66;5009105;28;20239;-49
2023/03/23 06:05:53;;;;;;;22.67;11.57;;;;;;;14.52;71.70;94678.66;5010073;28;20207;-48
2023/03/23 06:08:20;;;;;;;15.60;12.57;;;;;;;14.90;71.41;94709.03;5009725;28;20275;-49
2023/03/23 06:10:48;;;;;;;16.13;11.93;;;;;;;15.06;70.79;94714.16;5009340;28;20192;-47
2023/03/23 06:13:16;;;;;;;19.53;13.03;;;;;;;15.26;70.24;94714.59;5008577;28;20251;-49
2023/03/23 06:15:42;;;;;;;15.87;12.37;;;;;;;15.40;69.41;94689.91;5009092;28;20544;-48
2023/03/23 06:18:09;;;;;;;14.83;11.80;;;;;;;15.85;69.12;94714.22;5008811;28;20685;-47
2023/03/23 06:20:36;;;;;;;19.30;12.77;;;;;;;16.21;68.49;94709.31;5009187;28;20181;-48
2023/03/23 06:23:04;;;;;;;18.40;13.27;;;;;;;16.58;67.88;94715.50;5008895;28;20196;-51
2023/03/23 06:25:30;;;;;;;15.07;11.57;;;;;;;17.03;67.37;94709.47;5008833;28;20603;-51
2023/03/23 06:27:58;;;;;;;17.40;12.37;;;;;;;17.67;67.11;94714.09;5009104;28;20359;-51
2023/03/23 06:30:28;;;;;;;15.53;11.60;;;;;;;18.29;66.42;94705.84;5004082;28;20193;-49
2023/03/23 06:32:55;;;;;;;14.17;10.77;;;;;;;18.93;65.44;94717.97;4996254;28;20381;-49
2023/03/23 06:35:22;;;;;;;16.13;10.30;;;;;;;19.64;64.63;94708.25;5008195;28;20218;-48
2023/03/23 06:37:49;;;;;;;15.27;10.40;;;;;;;20.28;63.41;94712.22;5008906;28;20618;-51
2023/03/23 06:40:18;;;;;;;16.10;11.27;;;;;;;20.82;62.11;94715.72;5005119;28;20181;-48
2023/03/23 06:42:45;;;;;;;14.23;10.10;;;;;;;21.37;61.28;94711.06;5000585;28;20197;-49
2023/03/23 06:45:12;;;;;;;14.70;10.10;;;;;;;21.80;59.94;94719.16;4997846;28;20572;-48
2023/03/23 06:47:40;;;;;;;12.87;9.87;;;;;;;22.27;59.18;94715.34;5007639;28;20254;-48
2023/03/23 06:50:09;;;;;;;12.63;9.95;;;;;;;22.72;58.24;94717.09;5008453;28;20280;-50
2023/03/23 06:52:36;;;;;;;11.45;9.68;;;;;;;23.25;57.86;94727.09;5008842;28;20200;-48
2023/03/23 06:55:03;;;;;;;11.32;9.45;;;;;;;23.72;56.62;94730.06;5008426;28;20220;-49
2023/03/23 06:57:30;;;;;;;9.90;8.82;;;;;;;24.19;56.23;94732.91;4993929;28;20197;-48
2023/03/23 06:59:56;;;;;;;12.13;9.18;;;;;;;24.61;55.31;94728.53;4989214;28;20189;-49
2023/03/23 07:02:23;;;;;;;10.85;8.90;;;;;;;25.08;54.73;94728.63;4988600;28;20645;-49
2023/03/23 07:04:53;;;;;;;11.45;9.55;;;;;;;25.62;53.76;94731.13;4988866;28;20701;-47
2023/03/23 07:07:21;;;;;;;9.55;8.50;;;;;;;26.14;53.66;94725.88;4996272;28;20203;-47
2023/03/23 07:09:47;;;;;;;9.38;8.48;;;;;;;26.72;52.65;94740.56;5002588;28;20225;-48
2023/03/23 07:12:15;;;;;;;8.50;7.57;;;;;;;27.27;52.21;94740.69;4994571;28;20192;-49
2023/03/23 07:17:14;;;;;;;8.50;7.38;;;;;;;28.28;50.41;94744.88;4968663;28;20236;-48
2023/03/23 07:19:41;;;;;;;10.15;8.10;;;;;;;28.72;49.83;94737.72;4977950;28;20202;-45
2023/03/23 07:22:09;;;;;;;7.95;7.15;;;;;;;29.20;49.02;94732.59;4962766;28;20190;-47
2023/03/23 07:24:36;;;;;;;8.05;7.25;;;;;;;29.66;48.61;94736.34;4969738;28;20233;-48
2023/03/23 07:27:03;;;;;;;8.80;7.90;;;;;;;30.08;48.14;94739.94;4969325;28;20194;-46
2023/03/23 07:29:30;;;;;;;8.82;7.95;;;;;;;30.46;47.42;94742.19;5200503;23;20662;-46
2023/03/23 07:34:33;;;;;;;7.43;6.72;;;;;;;31.21;46.40;94737.22;5001539;28;20266;-47
2023/03/23 08:15:58;;;;;;;7.68;6.90;;;;;;;34.19;41.36;94762.44;5168003;23;20224;-49
2023/03/23 08:18:26;;;;;;;10.27;7.40;;;;;;;34.20;41.34;94757.94;4924324;29;20286;-48
2023/03/23 08:20:53;;;;;;;7.65;6.88;;;;;;;34.22;41.16;94765.63;4933292;29;20191;-48
2023/03/23 08:29:30;;;;;;;6.88;6.18;;;;;;;34.10;40.92;94755.41;5230745;23;20264;-70
2023/03/23 08:32:40;;;;;;;7.18;6.47;;;;;;;34.05;40.71;94756.25;4970550;28;20217;-74
2023/03/23 08:38:32;;;;;;;9.15;6.72;;;;;;;33.82;40.81;94752.50;4963105;28;20200;-68
2023/03/23 08:40:59;;;;;;;6.68;6.07;;;;;;;33.70;40.85;94744.16;4970925;28;20193;-71
2023/03/23 08:43:27;;;;;;;8.70;6.15;;;;;;;33.65;40.96;94752.97;4971533;28;20241;-71
2023/03/23 08:45:53;;;;;;;7.97;6.00;;;;;;;33.55;40.85;94747.78;4971622;28;20225;-71
2023/03/23 08:48:20;;;;;;;6.78;6.07;;;;;;;33.39;40.94;94759.56;4971486;28;20245;-68
2023/03/23 08:50:47;;;;;;;7.60;6.18;;;;;;;33.05;41.39;94757.72;4971202;28;20620;-72
2023/03/23 08:53:15;;;;;;;5.93;5.25;;;;;;;32.65;42.16;94754.28;4971377;28;20201;-70
2023/03/23 08:55:44;;;;;;;6.32;5.72;;;;;;;32.24;42.31;94751.03;4970623;28;20261;-66
2023/03/23 08:58:11;;;;;;;8.00;6.22;;;;;;;31.75;42.27;94749.06;4971250;28;20194;-69
2023/03/23 09:00:38;;;;;;;6.22;5.35;;;;;;;31.26;42.29;94747.00;4971207;28;20666;-66
2023/03/23 09:03:04;;;;;;;5.80;5.20;;;;;;;30.94;42.32;94758.66;4971698;28;20304;-67
2023/03/23 09:05:31;;;;;;;9.05;6.47;;;;;;;30.60;42.71;94752.25;4971121;28;20217;-66
2023/03/23 09:07:59;;;;;;;5.93;5.25;;;;;;;30.34;42.62;94751.38;4970923;28;20196;-70
2023/03/23 09:10:29;;;;;;;8.32;6.30;;;;;;;30.09;42.73;94752.06;4970521;28;20194;-68
2023/03/23 09:12:58;;;;;;;5.43;4.93;;;;;;;29.86;42.89;94748.81;4971377;28;20186;-70
2023/03/23 09:15:26;;;;;;;10.40;5.70;;;;;;;29.71;42.68;94754.81;4970749;28;20197;-70
2023/03/23 09:17:54;;;;;;;6.18;4.43;;;;;;;29.63;42.56;94750.03;4971700;28;20182;-68
2023/03/23 09:20:22;;;;;;;7.55;5.18;;;;;;;29.61;42.24;94748.69;4970814;28;20293;-68
2023/03/23 09:22:51;;;;;;;6.32;5.13;;;;;;;29.61;42.56;94748.69;4971210;28;20641;-68
2023/03/23 09:25:21;;;;;;;6.32;5.10;;;;;;;29.59;41.88;94746.31;4970419;28;20281;-67
2023/03/23 09:27:52;;;;;;;6.40;4.40;;;;;;;29.47;42.26;94741.19;4971273;28;20200;-68
2023/03/23 09:30:21;;;;;;;6.03;5.03;;;;;;;29.35;41.91;94732.69;4937456;28;20227;-70
2023/03/23 09:32:49;;;;;;;6.50;5.53;;;;;;;29.28;41.80;94739.25;4932149;29;20194;-70
2023/03/23 09:35:16;;;;;;;6.03;5.47;;;;;;;29.15;41.48;94738.63;4933257;29;20247;-76
2023/03/23 09:37:44;;;;;;;5.82;4.68;;;;;;;29.04;41.86;94733.53;4932640;29;20194;-70
2023/03/23 09:40:18;;;;;;;5.70;4.65;;;;;;;28.89;41.74;94724.44;4931364;29;20219;-74
2023/03/23 09:43:00;;;;;;;5.57;5.07;;;;;;;28.77;41.49;94729.09;4932015;29;20203;-74
2023/03/23 09:45:37;;;;;;;5.63;5.13;;;;;;;28.56;41.21;94727.31;4931525;29;20625;-72
2023/03/23 09:48:33;;;;;;;5.20;4.70;;;;;;;28.37;41.16;94730.28;4932112;29;20331;-68
2023/03/23 09:51:05;;;;;;;5.25;4.75;;;;;;;28.16;41.50;94731.88;4932198;29;20246;-68
2023/03/23 09:53:38;;;;;;;5.32;4.80;;;;;;;27.96;41.13;94723.75;4931190;29;20226;-67
2023/03/23 09:56:11;;;;;;;6.68;5.00;;;;;;;27.82;41.27;94725.16;4931574;29;20191;-74
2023/03/23 09:58:45;;;;;;;6.10;5.15;;;;;;;27.70;41.15;94722.63;4931281;29;20195;-74
2023/03/23 10:01:19;;;;;;;9.13;5.13;;;;;;;27.49;41.02;94716.31;4913524;29;20191;-74
2023/03/23 10:03:47;;;;;;;5.40;4.90;;;;;;;27.39;41.27;94718.81;4913437;29;20199;-76
2023/03/23 10:06:17;;;;;;;5.28;4.78;;;;;;;27.24;41.17;94714.09;4913037;29;20235;-70
2023/03/23 10:08:46;;;;;;;5.75;5.18;;;;;;;27.09;40.99;94714.69;4921697;29;20222;-70
2023/03/23 10:11:21;;;;;;;5.32;4.82;;;;;;;26.86;40.92;94720.09;4932046;29;20252;-76
2023/03/23 10:14:06;;;;;;;5.95;5.00;;;;;;;26.61;41.25;94717.84;4931146;29;20281;-76
2023/03/23 10:16:39;;;;;;;5.78;4.88;;;;;;;26.42;41.62;94714.56;4931756;29;20251;-75
2023/03/23 10:19:13;;;;;;;6.05;4.80;;;;;;;26.26;41.74;94713.53;4930628;29;20187;-68
2023/03/23 10:21:45;;;;;;;4.65;4.25;;;;;;;26.08;41.77;94708.44;4931881;29;20226;-70
2023/03/23 10:24:15;;;;;;;6.68;4.65;;;;;;;25.94;41.82;94706.09;4931069;29;20199;-71
2023/03/23 10:26:54;;;;;;;5.00;4.60;;;;;;;25.81;41.68;94706.38;4930937;29;20265;-69
2023/03/23 10:29:26;;;;;;;5.15;4.65;;;;;;;25.64;41.55;94706.25;4931566;29;20588;-66
2023/03/23 10:31:58;;;;;;;6.78;4.90;;;;;;;25.49;41.89;94708.59;4931441;29;20278;-72
2023/03/23 10:34:32;;;;;;;5.85;5.13;;;;;;;25.35;41.86;94704.63;4931687;29;20230;-69
2023/03/23 10:37:06;;;;;;;5.38;4.93;;;;;;;25.22;41.79;94700.41;4930023;29;20298;-68
2023/03/23 10:39:42;;;;;;;5.75;4.78;;;;;;;25.13;41.59;94699.97;4915651;29;20197;-68
2023/03/23 10:42:09;;;;;;;6.07;5.05;;;;;;;24.98;41.99;94704.81;4917886;29;20194;-70
2023/03/23 10:44:37;;;;;;;5.47;4.93;;;;;;;24.88;41.71;94702.75;4931110;29;20199;-68
2023/03/23 10:47:07;;;;;;;5.53;4.85;;;;;;;24.77;41.91;94700.91;4931409;29;20231;-68
2023/03/23 10:49:39;;;;;;;5.50;4.47;;;;;;;24.67;41.74;94696.25;4931524;29;20400;-68
2023/03/23 10:52:19;;;;;;;4.82;4.30;;;;;;;24.56;41.67;94691.78;4930176;29;20263;-68
2023/03/23 10:54:52;;;;;;;6.18;4.43;;;;;;;24.47;41.82;94693.13;4930559;29;20194;-68
2023/03/23 10:57:25;;;;;;;4.80;4.22;;;;;;;24.36;41.65;94684.22;4931295;29;20655;-70
2023/03/23 10:59:53;;;;;;;4.90;4.43;;;;;;;24.27;41.77;94691.56;4930716;29;20206;-69
2023/03/23 11:02:25;;;;;;;4.70;4.30;;;;;;;24.24;41.65;94691.22;4931027;29;20198;-62
2023/03/23 14:00:49;;;;;;;5.03;4.55;;;;;;;20.98;42.68;94560.13;5086209;27;21120;-71
2023/03/23 14:04:20;;;;;;;4.70;4.30;;;;;;;20.79;42.71;94543.56;5085712;27;20541;-71
2023/03/23 14:06:50;;;;;;;4.43;4.00;;;;;;;20.86;42.83;94566.16;5085675;28;20201;-66
2023/03/23 14:09:29;;;;;;;4.75;4.07;;;;;;;20.81;42.92;94551.16;5256783;22;20237;-67
2023/03/23 14:11:58;;;;;;;4.80;4.30;;;;;;;20.78;42.83;94556.78;5085392;28;20189;-68
2023/03/23 14:14:30;;;;;;;4.72;4.32;;;;;;;20.73;42.96;94554.78;5084181;28;20275;-67
2023/03/23 14:17:08;;;;;;;4.65;4.20;;;;;;;20.69;42.92;94547.59;5080342;28;20237;-70
2023/03/23 14:19:40;;;;;;;4.80;4.40;;;;;;;20.66;42.96;94543.59;5084683;28;20201;-69
2023/03/23 14:22:19;;;;;;;5.00;4.27;;;;;;;20.52;42.92;94523.84;5085247;28;20579;-70
2023/03/23 14:24:46;;;;;;;4.57;4.18;;;;;;;20.61;43.03;94537.44;5085609;28;20627;-69
2023/03/23 14:27:16;;;;;;;4.40;4.10;;;;;;;20.59;43.12;94539.41;5084933;28;20186;-71
2023/03/23 14:29:44;;;;;;;5.10;4.70;;;;;;;20.54;43.13;94538.22;5085814;28;20189;-72
2023/03/23 14:32:16;;;;;;;4.40;4.00;;;;;;;20.55;43.18;94539.00;5085498;28;20193;-70
2023/03/23 14:34:47;;;;;;;4.28;3.88;;;;;;;20.52;43.23;94534.25;5076699;28;20229;-71
2023/03/23 14:37:15;;;;;;;4.93;4.53;;;;;;;20.51;43.27;94541.25;5078647;28;20219;-69
2023/03/23 14:39:46;;;;;;;4.73;4.20;;;;;;;20.47;43.18;94531.44;5085114;28;20239;-69
2023/03/23 14:42:16;;;;;;;4.80;4.40;;;;;;;20.48;43.29;94535.66;5075111;28;20198;-75
2023/03/23 14:49:56;;;;;;;4.30;4.00;;;;;;;20.38;43.32;94545.59;5738182;22;20966;-52
2023/03/23 14:52:26;;;;;;;4.33;3.93;;;;;;;20.32;43.39;94541.22;5027103;28;20238;-52
2023/03/23 14:54:52;;;;;;;4.47;4.17;;;;;;;20.32;43.37;94533.44;5024874;28;20274;-53
2023/03/23 14:57:26;;;;;;;4.67;4.27;;;;;;;20.24;43.18;94526.66;5025023;28;20614;-53
2023/03/23 14:59:53;;;;;;;5.00;4.00;;;;;;;20.06;43.43;94498.69;5024913;28;20188;-51
2023/03/23 15:02:24;;;;;;;5.30;4.27;;;;;;;20.25;43.53;94536.84;5025137;28;20196;-53
2023/03/23 15:04:55;;;;;;;4.40;4.10;;;;;;;20.22;43.58;94536.44;5024500;28;20196;-52
2023/03/23 15:07:27;;;;;;;4.53;4.13;;;;;;;20.21;43.55;94533.06;5024934;28;20203;-52
2023/03/23 15:09:54;;;;;;;4.60;4.20;;;;;;;20.14;43.62;94523.66;5024427;28;20663;-52
2023/03/23 15:12:24;;;;;;;4.80;4.33;;;;;;;20.13;43.74;94532.47;5008627;28;20208;-52
2023/03/23 15:14:54;;;;;;;4.43;4.03;;;;;;;20.07;43.76;94521.06;5000896;28;20188;-53
2023/03/23 15:17:24;;;;;;;4.77;4.37;;;;;;;19.96;43.80;94509.50;5010177;28;20584;-52
2023/03/23 15:19:52;;;;;;;4.40;4.00;;;;;;;20.00;43.82;94517.69;5010333;28;20212;-53
2023/03/23 15:22:25;;;;;;;5.27;4.80;;;;;;;19.83;44.12;94496.53;5010649;28;20208;-50
2023/03/23 15:24:53;;;;;;;5.00;4.60;;;;;;;19.92;43.98;94531.66;5006117;28;20635;-54
2023/03/23 15:27:28;;;;;;;4.40;4.00;;;;;;;19.89;44.02;94520.88;5011499;28;20231;-51
2023/03/23 15:29:58;;;;;;;4.63;3.93;;;;;;;19.84;44.19;94524.06;5010826;28;20195;-52
2023/03/23 15:32:27;;;;;;;4.80;4.40;;;;;;;19.80;44.29;94526.25;5010385;28;20337;-52
2023/03/23 15:34:55;;;;;;;5.57;4.50;;;;;;;19.75;44.36;94533.84;5009549;28;20660;-51